Time;durP1;ratioP1;P1;durP2;ratioP2;P2;SDS_P1;SDS_P2;PMS_P1;PMS_P2;Temp;Humidity;BMP_temperature;BMP_pressure;BME280_temperature;BME280_humidity;BME280_pressure;Samples;Min_cycle;Max_cycle;Signal;HPM_P1;HPM_P2
2022/03/03 00:00:23;;;;;;;0.70;0.70;;;;;;;;;;5116646;27;20206;-67
2022/03/03 00:03:12;;;;;;;0.70;0.70;;;;;;;;;;5124838;27;20622;-67
2022/03/03 00:05:59;;;;;;;0.70;0.70;;;;;;;;;;5123131;27;20205;-67
2022/03/03 00:08:46;;;;;;;1.00;1.00;;;;;;;;;;5116925;27;20998;-67
2022/03/03 00:11:33;;;;;;;0.80;0.80;;;;;;;;;;5120425;27;20213;-67
2022/03/03 00:14:20;;;;;;;0.77;0.77;;;;;;;;;;5118628;27;20273;-67
2022/03/03 00:17:07;;;;;;;0.70;0.70;;;;;;;;;;5117023;27;20212;-67
2022/03/03 00:19:56;;;;;;;1.00;1.00;;;;;;;;;;5121655;28;20195;-68
2022/03/03 00:22:43;;;;;;;0.60;0.60;;;;;;;;;;5119388;28;20227;-67
2022/03/03 00:25:30;;;;;;;0.70;0.70;;;;;;;;;;5120543;28;20276;-67
2022/03/03 00:28:17;;;;;;;0.80;0.80;;;;;;;;;;5116881;28;20252;-67
2022/03/03 00:31:05;;;;;;;0.70;0.70;;;;;;;;;;5117538;28;20735;-67
2022/03/03 00:33:52;;;;;;;0.57;0.57;;;;;;;;;;5121672;28;20696;-66
2022/03/03 00:36:40;;;;;;;0.67;0.67;;;;;;;;;;5119889;28;20205;-67
2022/03/03 00:39:27;;;;;;;0.60;0.60;;;;;;;;;;5116140;28;20212;-67
2022/03/03 00:42:14;;;;;;;0.60;0.60;;;;;;;;;;5115803;28;20278;-67
2022/03/03 00:45:01;;;;;;;0.60;0.60;;;;;;;;;;5118318;28;20238;-67
2022/03/03 00:47:48;;;;;;;0.70;0.70;;;;;;;;;;5121588;28;20234;-67
2022/03/03 00:50:36;;;;;;;0.70;0.70;;;;;;;;;;5119684;28;20330;-67
2022/03/03 00:53:25;;;;;;;0.60;0.60;;;;;;;;;;5117113;28;20766;-67
2022/03/03 00:56:12;;;;;;;0.57;0.57;;;;;;;;;;5117842;28;20259;-66
2022/03/03 00:58:59;;;;;;;0.50;0.50;;;;;;;;;;5116366;28;20287;-67
2022/03/03 01:01:45;;;;;;;0.60;0.60;;;;;;;;;;5121148;28;20234;-67
2022/03/03 01:04:32;;;;;;;0.40;0.40;;;;;;;;;;5122544;28;20678;-67
2022/03/03 01:07:19;;;;;;;0.60;0.60;;;;;;;;;;5114775;28;20207;-67
2022/03/03 01:10:10;;;;;;;0.63;0.63;;;;;;;;;;5115729;28;20612;-67
2022/03/03 01:12:57;;;;;;;0.67;0.67;;;;;;;;;;5116796;28;20232;-67
2022/03/03 01:15:44;;;;;;;0.60;0.60;;;;;;;;;;5116864;28;20287;-67
2022/03/03 01:18:31;;;;;;;0.50;0.50;;;;;;;;;;5122396;28;20219;-67
2022/03/03 01:21:18;;;;;;;0.60;0.60;;;;;;;;;;5117214;28;20347;-67
2022/03/03 01:24:06;;;;;;;0.50;0.50;;;;;;;;;;5121324;27;20297;-67
2022/03/03 01:26:54;;;;;;;0.50;0.50;;;;;;;;;;5124198;27;20366;-67
2022/03/03 01:29:41;;;;;;;0.50;0.50;;;;;;;;;;5124163;27;20217;-66
2022/03/03 01:32:28;;;;;;;0.60;0.60;;;;;;;;;;5120443;27;20367;-67
2022/03/03 01:35:15;;;;;;;0.50;0.50;;;;;;;;;;5121418;27;20688;-67
2022/03/03 01:38:03;;;;;;;0.37;0.37;;;;;;;;;;5124893;27;20733;-67
2022/03/03 01:40:50;;;;;;;0.50;0.50;;;;;;;;;;5124847;27;20257;-67
2022/03/03 01:43:39;;;;;;;0.50;0.50;;;;;;;;;;5122033;27;20364;-67
2022/03/03 01:46:26;;;;;;;0.30;0.30;;;;;;;;;;5122737;27;20235;-67
2022/03/03 01:49:13;;;;;;;0.60;0.60;;;;;;;;;;5123160;27;20200;-67
2022/03/03 01:52:00;;;;;;;0.30;0.30;;;;;;;;;;5121745;27;20341;-67
2022/03/03 01:54:47;;;;;;;0.40;0.40;;;;;;;;;;5123100;27;20207;-67
2022/03/03 01:57:34;;;;;;;0.40;0.40;;;;;;;;;;5121250;27;20245;-67
2022/03/03 02:00:23;;;;;;;0.40;0.40;;;;;;;;;;5120570;27;20358;-67
2022/03/03 02:03:10;;;;;;;0.40;0.40;;;;;;;;;;5118763;27;20229;-67
2022/03/03 02:05:57;;;;;;;0.40;0.40;;;;;;;;;;5122764;27;20592;-67
2022/03/03 02:08:44;;;;;;;0.40;0.40;;;;;;;;;;5122653;27;20242;-67
2022/03/03 02:11:32;;;;;;;0.50;0.50;;;;;;;;;;5123046;27;20247;-67
2022/03/03 02:14:19;;;;;;;0.30;0.30;;;;;;;;;;5121065;27;20251;-67
2022/03/03 02:17:08;;;;;;;0.43;0.43;;;;;;;;;;5121160;27;20218;-67
2022/03/03 02:19:55;;;;;;;0.40;0.40;;;;;;;;;;5121299;27;20338;-67
2022/03/03 02:22:43;;;;;;;0.40;0.40;;;;;;;;;;5122013;27;20214;-67
2022/03/03 02:25:30;;;;;;;0.40;0.40;;;;;;;;;;5123970;27;20212;-67
2022/03/03 02:28:17;;;;;;;0.60;0.60;;;;;;;;;;5122876;27;20255;-67
2022/03/03 02:31:04;;;;;;;0.40;0.40;;;;;;;;;;5121777;27;20213;-67
2022/03/03 02:33:51;;;;;;;0.40;0.40;;;;;;;;;;5119120;27;20426;-67
2022/03/03 02:36:38;;;;;;;0.50;0.50;;;;;;;;;;5123845;27;20680;-67
2022/03/03 02:39:27;;;;;;;0.40;0.40;;;;;;;;;;5123906;27;20227;-67
2022/03/03 02:42:14;;;;;;;0.40;0.40;;;;;;;;;;5122298;27;20253;-67
2022/03/03 02:45:02;;;;;;;0.30;0.30;;;;;;;;;;5123222;27;20317;-67
2022/03/03 02:47:51;;;;;;;0.50;0.50;;;;;;;;;;5123995;27;20218;-67
2022/03/03 02:50:38;;;;;;;0.60;0.60;;;;;;;;;;5120316;27;20247;-67
2022/03/03 02:53:25;;;;;;;0.43;0.43;;;;;;;;;;5126558;27;20223;-68
2022/03/03 02:56:13;;;;;;;0.50;0.50;;;;;;;;;;5124763;27;20665;-67
2022/03/03 02:59:00;;;;;;;0.43;0.43;;;;;;;;;;5117877;27;20332;-67
2022/03/03 03:01:47;;;;;;;0.43;0.43;;;;;;;;;;5125104;27;20297;-67
2022/03/03 03:04:34;;;;;;;0.40;0.40;;;;;;;;;;5124306;27;20730;-67
2022/03/03 03:07:22;;;;;;;0.40;0.40;;;;;;;;;;5119058;27;20264;-67
2022/03/03 03:10:09;;;;;;;0.60;0.60;;;;;;;;;;5121805;27;20215;-67
2022/03/03 03:12:57;;;;;;;0.43;0.43;;;;;;;;;;5114340;27;20252;-66
2022/03/03 03:15:46;;;;;;;0.57;0.57;;;;;;;;;;5119215;27;20206;-67
2022/03/03 03:18:32;;;;;;;0.50;0.50;;;;;;;;;;5117368;27;20203;-67
2022/03/03 03:21:19;;;;;;;0.60;0.60;;;;;;;;;;5123211;27;20230;-67
2022/03/03 03:24:06;;;;;;;0.53;0.53;;;;;;;;;;5118022;27;20260;-66
2022/03/03 03:26:53;;;;;;;0.50;0.50;;;;;;;;;;5120122;27;20227;-71
2022/03/03 03:29:42;;;;;;;0.70;0.70;;;;;;;;;;5121558;27;20571;-67
2022/03/03 03:32:29;;;;;;;0.60;0.60;;;;;;;;;;5118373;27;20695;-67
2022/03/03 03:35:16;;;;;;;0.60;0.60;;;;;;;;;;5125893;27;20206;-67
2022/03/03 03:38:03;;;;;;;0.77;0.77;;;;;;;;;;5123158;27;20221;-67
2022/03/03 03:40:50;;;;;;;0.60;0.60;;;;;;;;;;5124330;27;20694;-67
2022/03/03 03:43:37;;;;;;;0.60;0.60;;;;;;;;;;5121591;27;20317;-67
2022/03/03 03:46:25;;;;;;;0.60;0.60;;;;;;;;;;5119597;27;20206;-67
2022/03/03 03:49:12;;;;;;;0.90;0.90;;;;;;;;;;5118537;27;20261;-67
2022/03/03 03:51:59;;;;;;;0.70;0.70;;;;;;;;;;5119694;27;20225;-67
2022/03/03 03:54:46;;;;;;;0.80;0.80;;;;;;;;;;5121473;27;20209;-67
2022/03/03 03:57:33;;;;;;;0.73;0.73;;;;;;;;;;5118377;27;20264;-67
2022/03/03 04:00:20;;;;;;;0.80;0.80;;;;;;;;;;5121203;27;20208;-67
2022/03/03 04:03:08;;;;;;;0.80;0.80;;;;;;;;;;5121324;27;20264;-67
2022/03/03 04:05:56;;;;;;;0.80;0.80;;;;;;;;;;5121264;27;20343;-67
2022/03/03 04:08:42;;;;;;;0.80;0.80;;;;;;;;;;5119038;27;20290;-66
2022/03/03 04:11:30;;;;;;;0.67;0.67;;;;;;;;;;5118829;27;20299;-67
2022/03/03 04:14:17;;;;;;;0.80;0.80;;;;;;;;;;5120192;27;20286;-67
2022/03/03 04:17:05;;;;;;;0.60;0.60;;;;;;;;;;5114413;28;20239;-67
2022/03/03 04:19:53;;;;;;;0.90;0.90;;;;;;;;;;5124018;28;20530;-67
2022/03/03 04:22:40;;;;;;;1.17;1.17;;;;;;;;;;5120602;28;20219;-67
2022/03/03 04:25:27;;;;;;;0.93;0.93;;;;;;;;;;5118487;28;20235;-67
2022/03/03 04:28:14;;;;;;;0.90;0.90;;;;;;;;;;5118356;28;20675;-68
2022/03/03 04:31:01;;;;;;;0.93;0.93;;;;;;;;;;5119222;27;20331;-67
2022/03/03 04:33:48;;;;;;;0.90;0.90;;;;;;;;;;5122234;28;20235;-67
2022/03/03 04:36:36;;;;;;;1.00;1.00;;;;;;;;;;5120042;28;20681;-67
2022/03/03 04:39:23;;;;;;;1.10;1.10;;;;;;;;;;5119299;28;20287;-67
2022/03/03 04:42:10;;;;;;;0.70;0.70;;;;;;;;;;5118844;28;20335;-67
2022/03/03 04:44:57;;;;;;;1.20;1.20;;;;;;;;;;5121099;28;20375;-67
2022/03/03 04:47:44;;;;;;;1.10;1.10;;;;;;;;;;5122094;28;20738;-67
2022/03/03 04:50:31;;;;;;;0.97;0.97;;;;;;;;;;5118624;28;20362;-67
2022/03/03 04:53:19;;;;;;;1.03;1.03;;;;;;;;;;5122581;28;20237;-67
2022/03/03 04:56:07;;;;;;;1.00;1.00;;;;;;;;;;5119890;28;20209;-68
2022/03/03 04:58:54;;;;;;;1.10;1.10;;;;;;;;;;5123951;27;20238;-67
2022/03/03 05:01:41;;;;;;;1.03;1.03;;;;;;;;;;5124096;27;20678;-67
2022/03/03 05:04:28;;;;;;;1.00;1.00;;;;;;;;;;5119930;27;20595;-68
2022/03/03 05:07:15;;;;;;;1.23;1.23;;;;;;;;;;5123661;27;20241;-67
2022/03/03 05:10:04;;;;;;;1.10;1.07;;;;;;;;;;5122454;27;20222;-67
2022/03/03 05:12:51;;;;;;;1.10;1.10;;;;;;;;;;5120994;27;20214;-67
2022/03/03 05:15:38;;;;;;;1.17;1.17;;;;;;;;;;5120924;27;20214;-67
2022/03/03 05:18:25;;;;;;;1.00;1.00;;;;;;;;;;5124345;27;20287;-68
2022/03/03 05:21:12;;;;;;;1.00;1.00;;;;;;;;;;5121841;27;20659;-67
2022/03/03 05:23:59;;;;;;;0.90;0.90;;;;;;;;;;5122718;27;20519;-68
2022/03/03 05:26:48;;;;;;;1.10;1.10;;;;;;;;;;5123652;27;20231;-67
2022/03/03 05:29:34;;;;;;;1.00;1.00;;;;;;;;;;5120862;27;20281;-68
2022/03/03 05:32:21;;;;;;;0.80;0.80;;;;;;;;;;5121523;27;20626;-68
2022/03/03 05:35:09;;;;;;;1.10;1.10;;;;;;;;;;5122334;27;20736;-68
2022/03/03 05:37:56;;;;;;;0.97;0.97;;;;;;;;;;5124636;27;20293;-68
2022/03/03 05:40:43;;;;;;;0.80;0.80;;;;;;;;;;5119082;27;20816;-68
2022/03/03 05:43:32;;;;;;;1.00;1.00;;;;;;;;;;5123930;27;20226;-67
2022/03/03 05:46:20;;;;;;;0.90;0.90;;;;;;;;;;5122431;27;20213;-71
2022/03/03 05:49:08;;;;;;;0.80;0.80;;;;;;;;;;5123242;27;20203;-67
2022/03/03 05:51:56;;;;;;;1.00;1.00;;;;;;;;;;5120683;27;20310;-67
2022/03/03 05:54:42;;;;;;;0.80;0.80;;;;;;;;;;5123060;27;20252;-67
2022/03/03 05:57:35;;;;;;;0.87;0.87;;;;;;;;;;5121772;27;20297;-67
2022/03/03 06:00:28;;;;;;;0.90;0.90;;;;;;;;;;5122866;27;20689;-67
2022/03/03 06:03:17;;;;;;;1.00;1.00;;;;;;;;;;5120991;27;20347;-67
2022/03/03 06:06:09;;;;;;;1.20;1.20;;;;;;;;;;5126382;27;20271;-67
2022/03/03 06:09:02;;;;;;;2.10;2.00;;;;;;;;;;5124130;27;20212;-67
2022/03/03 06:11:54;;;;;;;2.33;2.23;;;;;;;;;;5121584;27;20313;-67
2022/03/03 06:14:46;;;;;;;2.40;2.30;;;;;;;;;;5118217;27;20215;-68
2022/03/03 06:17:35;;;;;;;2.90;2.70;;;;;;;;;;5120557;27;20688;-67
2022/03/03 06:20:24;;;;;;;2.80;2.60;;;;;;;;;;5122649;27;20211;-67
2022/03/03 06:23:12;;;;;;;3.30;3.10;;;;;;;;;;5122506;27;20217;-67
2022/03/03 06:26:03;;;;;;;3.60;3.30;;;;;;;;;;5120360;27;20227;-68
2022/03/03 06:28:50;;;;;;;3.40;3.13;;;;;;;;;;5122216;27;20207;-67
2022/03/03 06:31:37;;;;;;;4.10;3.70;;;;;;;;;;5119749;27;20211;-67
2022/03/03 06:34:25;;;;;;;3.80;3.50;;;;;;;;;;5119768;27;20294;-67
2022/03/03 06:37:12;;;;;;;3.40;3.20;;;;;;;;;;5118879;27;20238;-68
2022/03/03 06:39:59;;;;;;;3.83;3.53;;;;;;;;;;5120375;27;20221;-67
2022/03/03 06:42:46;;;;;;;4.07;3.77;;;;;;;;;;5119851;27;20243;-67
2022/03/03 06:45:33;;;;;;;4.00;3.70;;;;;;;;;;5124045;27;20267;-67
2022/03/03 06:48:20;;;;;;;3.60;3.30;;;;;;;;;;5120185;27;20224;-67
2022/03/03 06:51:13;;;;;;;3.57;3.30;;;;;;;;;;5122634;27;20293;-67
2022/03/03 06:54:03;;;;;;;4.07;3.77;;;;;;;;;;5121429;27;20256;-67
2022/03/03 06:56:51;;;;;;;3.77;3.57;;;;;;;;;;5122468;27;20208;-66
2022/03/03 06:59:40;;;;;;;4.17;3.87;;;;;;;;;;5118200;27;20261;-67
2022/03/03 07:02:27;;;;;;;3.70;3.40;;;;;;;;;;5117329;27;20215;-67
2022/03/03 07:05:15;;;;;;;4.03;3.73;;;;;;;;;;5118380;27;21383;-67
2022/03/03 07:08:04;;;;;;;3.60;3.40;;;;;;;;;;5122204;27;20423;-68
2022/03/03 07:10:51;;;;;;;3.50;3.20;;;;;;;;;;5123672;27;20694;-68
2022/03/03 07:13:38;;;;;;;3.47;3.23;;;;;;;;;;5119401;27;20763;-68
2022/03/03 07:16:35;;;;;;;3.63;3.33;;;;;;;;;;5118695;27;20219;-68
2022/03/03 07:19:40;;;;;;;3.53;3.33;;;;;;;;;;5120792;27;20288;-67
2022/03/03 07:22:33;;;;;;;2.80;2.70;;;;;;;;;;5121113;27;20228;-67
2022/03/03 07:25:28;;;;;;;3.10;2.90;;;;;;;;;;5120707;27;20644;-68
2022/03/03 07:28:18;;;;;;;3.13;2.93;;;;;;;;;;5122073;27;20243;-68
2022/03/03 07:31:07;;;;;;;3.38;3.17;;;;;;;;;;5119530;27;20286;-66
2022/03/03 07:33:56;;;;;;;3.30;3.10;;;;;;;;;;5123014;27;20209;-66
2022/03/03 07:36:45;;;;;;;3.30;3.10;;;;;;;;;;5121591;27;20212;-65
2022/03/03 07:39:40;;;;;;;3.17;2.97;;;;;;;;;;5120596;27;20204;-65
2022/03/03 07:42:28;;;;;;;3.15;2.95;;;;;;;;;;5118330;27;20225;-65
2022/03/03 07:45:15;;;;;;;2.95;2.75;;;;;;;;;;5119618;27;20229;-66
2022/03/03 07:48:02;;;;;;;3.00;2.80;;;;;;;;;;5118053;27;20235;-65
2022/03/03 07:50:49;;;;;;;3.00;2.80;;;;;;;;;;5120734;27;20221;-66
2022/03/03 07:53:37;;;;;;;2.53;2.42;;;;;;;;;;5118883;27;20271;-65
2022/03/03 07:56:28;;;;;;;2.55;2.45;;;;;;;;;;5120664;27;20668;-65
2022/03/03 07:59:18;;;;;;;2.65;2.50;;;;;;;;;;5117934;27;20203;-66
2022/03/03 08:02:06;;;;;;;2.70;2.50;;;;;;;;;;5116351;27;20278;-68
2022/03/03 08:04:53;;;;;;;2.33;2.23;;;;;;;;;;5119740;27;20935;-68
2022/03/03 08:07:43;;;;;;;2.77;2.60;;;;;;;;;;5118485;27;20553;-68
2022/03/03 08:10:31;;;;;;;3.03;2.83;;;;;;;;;;5121338;27;20287;-68
2022/03/03 08:13:19;;;;;;;2.60;2.50;;;;;;;;;;5119151;27;20293;-68
2022/03/03 08:16:07;;;;;;;2.80;2.60;;;;;;;;;;5121164;27;20579;-68
2022/03/03 08:18:56;;;;;;;2.70;2.53;;;;;;;;;;5118619;27;20281;-68
2022/03/03 08:21:44;;;;;;;2.43;2.33;;;;;;;;;;5119330;28;20269;-68
2022/03/03 08:24:35;;;;;;;2.33;2.20;;;;;;;;;;5123853;28;20212;-68
2022/03/03 08:27:22;;;;;;;2.70;2.50;;;;;;;;;;5120500;28;20350;-68
2022/03/03 08:30:11;;;;;;;2.30;2.17;;;;;;;;;;5114917;28;20204;-68
2022/03/03 08:33:13;;;;;;;2.60;2.40;;;;;;;;;;5117753;27;20299;-68
2022/03/03 08:36:02;;;;;;;2.27;2.17;;;;;;;;;;5124908;27;20196;-68
2022/03/03 08:38:52;;;;;;;2.63;2.50;;;;;;;;;;5120744;27;20222;-68
2022/03/03 08:41:40;;;;;;;2.47;2.37;;;;;;;;;;5120505;27;20238;-68
2022/03/03 08:44:32;;;;;;;2.40;2.30;;;;;;;;;;5122542;27;20687;-68
2022/03/03 08:47:21;;;;;;;2.63;2.43;;;;;;;;;;5124848;27;20289;-68
2022/03/03 08:50:13;;;;;;;2.70;2.50;;;;;;;;;;5122620;27;20684;-68
2022/03/03 08:53:01;;;;;;;2.53;2.43;;;;;;;;;;5123796;27;20262;-68
2022/03/03 08:55:47;;;;;;;2.13;2.03;;;;;;;;;;5122807;27;20677;-69
2022/03/03 08:58:35;;;;;;;2.33;2.13;;;;;;;;;;5122121;27;20830;-68
2022/03/03 09:01:23;;;;;;;2.43;2.33;;;;;;;;;;5122199;27;20337;-68
2022/03/03 09:04:10;;;;;;;2.30;2.20;;;;;;;;;;5126977;27;20206;-68
2022/03/03 09:06:58;;;;;;;2.30;2.20;;;;;;;;;;5122251;27;20209;-68
2022/03/03 09:09:45;;;;;;;2.30;2.20;;;;;;;;;;5117918;27;20263;-69
2022/03/03 09:12:32;;;;;;;2.20;2.10;;;;;;;;;;5121707;27;20227;-69
2022/03/03 09:15:19;;;;;;;2.20;2.10;;;;;;;;;;5120857;27;20618;-69
2022/03/03 09:18:06;;;;;;;2.03;1.90;;;;;;;;;;5121224;27;20289;-69
2022/03/03 09:20:53;;;;;;;2.10;2.00;;;;;;;;;;5121969;27;20205;-69
2022/03/03 09:23:42;;;;;;;2.00;1.90;;;;;;;;;;5123928;27;20283;-69
2022/03/03 09:26:29;;;;;;;2.13;2.03;;;;;;;;;;5121932;27;20248;-69
2022/03/03 09:29:17;;;;;;;2.07;1.97;;;;;;;;;;5122632;27;20218;-69
2022/03/03 09:32:06;;;;;;;1.97;1.87;;;;;;;;;;5121876;27;20214;-69
2022/03/03 09:34:53;;;;;;;2.40;2.17;;;;;;;;;;5121344;27;20305;-69
2022/03/03 09:37:41;;;;;;;1.83;1.73;;;;;;;;;;5119898;27;20209;-69
2022/03/03 09:40:29;;;;;;;2.20;2.10;;;;;;;;;;5122030;27;20215;-68
2022/03/03 09:43:17;;;;;;;1.97;1.87;;;;;;;;;;5125866;27;20249;-68
2022/03/03 09:46:04;;;;;;;1.93;1.83;;;;;;;;;;5124581;27;20225;-68
2022/03/03 09:48:51;;;;;;;2.07;1.97;;;;;;;;;;5121320;27;20211;-68
2022/03/03 09:51:38;;;;;;;2.00;1.90;;;;;;;;;;5122888;27;20237;-68
2022/03/03 09:54:25;;;;;;;2.00;1.90;;;;;;;;;;5121959;27;20402;-68
2022/03/03 09:57:15;;;;;;;2.10;2.00;;;;;;;;;;5121357;27;20271;-68
2022/03/03 10:00:04;;;;;;;1.87;1.77;;;;;;;;;;5121960;27;20207;-68
2022/03/03 10:03:00;;;;;;;1.87;1.77;;;;;;;;;;5122280;27;20203;-68
2022/03/03 10:05:49;;;;;;;1.87;1.77;;;;;;;;;;5123514;27;20220;-68
2022/03/03 10:08:37;;;;;;;1.83;1.73;;;;;;;;;;5119457;27;20208;-68
2022/03/03 10:11:23;;;;;;;1.80;1.70;;;;;;;;;;5122372;27;20204;-67
2022/03/03 10:14:12;;;;;;;1.67;1.57;;;;;;;;;;5122443;27;20239;-68
2022/03/03 10:17:00;;;;;;;1.67;1.57;;;;;;;;;;5122633;27;20234;-68
2022/03/03 10:19:54;;;;;;;1.80;1.70;;;;;;;;;;5123883;27;20659;-68
2022/03/03 10:22:42;;;;;;;1.90;1.80;;;;;;;;;;5120033;27;20662;-68
2022/03/03 10:25:35;;;;;;;1.53;1.53;;;;;;;;;;5124239;27;20702;-68
2022/03/03 10:28:24;;;;;;;1.60;1.50;;;;;;;;;;5122731;27;20294;-68
2022/03/03 10:31:15;;;;;;;1.13;1.10;;;;;;;;;;5122426;27;20663;-68
2022/03/03 10:34:02;;;;;;;1.60;1.50;;;;;;;;;;5120670;27;20205;-68
2022/03/03 10:36:57;;;;;;;1.30;1.30;;;;;;;;;;5120851;27;20748;-68
2022/03/03 10:39:46;;;;;;;1.53;1.43;;;;;;;;;;5121492;27;20291;-67
2022/03/03 10:42:37;;;;;;;1.63;1.47;;;;;;;;;;5120986;27;20230;-67
2022/03/03 10:45:24;;;;;;;1.30;1.30;;;;;;;;;;5121857;27;20225;-67
2022/03/03 10:48:22;;;;;;;2.07;1.40;;;;;;;;;;5124241;27;20266;-67
2022/03/03 10:51:11;;;;;;;1.30;1.20;;;;;;;;;;5119709;27;20248;-67
2022/03/03 10:53:58;;;;;;;1.40;1.40;;;;;;;;;;5122291;27;20301;-68
2022/03/03 10:56:48;;;;;;;1.27;1.17;;;;;;;;;;5122906;27;20682;-67
2022/03/03 10:59:35;;;;;;;0.90;0.90;;;;;;;;;;5117965;27;20683;-67
2022/03/03 11:02:22;;;;;;;1.10;1.00;;;;;;;;;;5123254;27;20619;-67
2022/03/03 11:05:12;;;;;;;1.20;1.10;;;;;;;;;;5120296;27;20223;-67
2022/03/03 11:07:59;;;;;;;0.90;0.90;;;;;;;;;;5122265;27;20781;-67
2022/03/03 11:10:47;;;;;;;0.90;0.90;;;;;;;;;;5122248;27;20274;-68
2022/03/03 11:13:36;;;;;;;0.90;0.90;;;;;;;;;;5120921;27;20212;-67
2022/03/03 11:16:25;;;;;;;0.80;0.77;;;;;;;;;;5121764;27;20223;-68
2022/03/03 11:19:12;;;;;;;0.90;0.90;;;;;;;;;;5119440;27;20205;-68
2022/03/03 11:22:00;;;;;;;0.90;0.90;;;;;;;;;;5118850;27;20679;-67
2022/03/03 11:24:48;;;;;;;0.73;0.73;;;;;;;;;;5123294;27;20278;-67
2022/03/03 11:27:37;;;;;;;1.33;1.00;;;;;;;;;;5118894;27;20209;-67
2022/03/03 11:30:29;;;;;;;0.80;0.80;;;;;;;;;;5114267;27;20206;-67
2022/03/03 11:33:26;;;;;;;0.73;0.73;;;;;;;;;;5118748;27;20405;-67
2022/03/03 11:36:19;;;;;;;0.70;0.70;;;;;;;;;;5121490;27;20206;-65
2022/03/03 11:39:08;;;;;;;0.60;0.60;;;;;;;;;;5119971;27;20206;-65
2022/03/03 11:41:55;;;;;;;0.73;0.73;;;;;;;;;;5118674;27;20318;-66
2022/03/03 11:44:42;;;;;;;0.73;0.70;;;;;;;;;;5116616;27;20362;-67
2022/03/03 11:47:31;;;;;;;0.70;0.70;;;;;;;;;;5122668;27;20230;-65
2022/03/03 11:50:22;;;;;;;1.13;0.70;;;;;;;;;;5121465;27;20233;-65
2022/03/03 11:53:18;;;;;;;0.50;0.50;;;;;;;;;;5122558;27;20232;-66
2022/03/03 11:56:08;;;;;;;0.70;0.70;;;;;;;;;;5121475;27;20225;-66
2022/03/03 11:59:12;;;;;;;0.60;0.60;;;;;;;;;;5123680;27;20210;-66
2022/03/03 12:01:59;;;;;;;0.60;0.60;;;;;;;;;;5117283;27;20683;-66
2022/03/03 12:04:46;;;;;;;0.70;0.70;;;;;;;;;;5119267;27;20797;-66
2022/03/03 12:07:34;;;;;;;0.50;0.50;;;;;;;;;;5122313;27;20348;-66
2022/03/03 12:10:21;;;;;;;0.47;0.47;;;;;;;;;;5121105;27;20201;-65
2022/03/03 12:13:27;;;;;;;0.47;0.47;;;;;;;;;;5117520;27;20306;-66
2022/03/03 12:16:17;;;;;;;0.40;0.40;;;;;;;;;;5118432;27;20226;-65
2022/03/03 12:19:15;;;;;;;0.40;0.40;;;;;;;;;;5120751;27;20298;-66
2022/03/03 12:22:03;;;;;;;0.40;0.40;;;;;;;;;;5119798;28;20563;-66
2022/03/03 12:24:50;;;;;;;0.50;0.50;;;;;;;;;;5119696;28;20212;-65
2022/03/03 12:28:16;;;;;;;0.30;0.30;;;;;;;;;;5118385;28;20233;-65
2022/03/03 12:31:24;;;;;;;0.90;0.50;;;;;;;;;;5119869;28;20670;-65
2022/03/03 12:34:10;;;;;;;0.27;0.20;;;;;;;;;;5114510;28;20578;-66
2022/03/03 12:36:57;;;;;;;0.20;0.20;;;;;;;;;;5117599;28;20284;-66
2022/03/03 12:39:48;;;;;;;0.70;0.60;;;;;;;;;;5118417;28;20207;-66
2022/03/03 12:42:35;;;;;;;0.40;0.40;;;;;;;;;;5119464;28;20246;-66
2022/03/03 12:45:23;;;;;;;0.33;0.33;;;;;;;;;;5120681;28;20278;-66
2022/03/03 12:48:13;;;;;;;0.40;0.40;;;;;;;;;;5122035;28;20218;-66
2022/03/03 12:51:02;;;;;;;0.20;0.20;;;;;;;;;;5117144;28;20334;-66
2022/03/03 12:53:50;;;;;;;0.20;0.20;;;;;;;;;;5120301;28;20299;-66
2022/03/03 12:56:37;;;;;;;0.40;0.40;;;;;;;;;;5120298;28;20199;-65
2022/03/03 12:59:24;;;;;;;0.30;0.23;;;;;;;;;;5117673;28;20323;-66
2022/03/03 13:02:11;;;;;;;0.30;0.30;;;;;;;;;;5114037;28;20211;-66
2022/03/03 13:04:59;;;;;;;0.30;0.30;;;;;;;;;;5117960;28;20560;-66
2022/03/03 13:07:46;;;;;;;0.40;0.40;;;;;;;;;;5120530;28;20229;-66
2022/03/03 13:10:35;;;;;;;0.40;0.40;;;;;;;;;;5121789;28;20330;-66
2022/03/03 13:13:22;;;;;;;0.70;0.70;;;;;;;;;;5121132;28;20214;-66
2022/03/03 13:16:13;;;;;;;0.97;0.97;;;;;;;;;;5119310;28;20190;-66
2022/03/03 13:19:03;;;;;;;0.87;0.87;;;;;;;;;;5120109;27;20288;-66
2022/03/03 13:21:51;;;;;;;0.97;0.97;;;;;;;;;;5123288;27;20204;-66
2022/03/03 13:24:38;;;;;;;0.90;0.90;;;;;;;;;;5121815;27;20333;-66
2022/03/03 13:27:25;;;;;;;0.83;0.83;;;;;;;;;;5125010;27;20225;-66
2022/03/03 13:30:13;;;;;;;1.10;1.10;;;;;;;;;;5123918;27;20669;-66
2022/03/03 13:33:00;;;;;;;1.00;1.00;;;;;;;;;;5120483;27;20234;-66
2022/03/03 13:35:47;;;;;;;0.90;0.90;;;;;;;;;;5122040;27;20288;-66
2022/03/03 13:38:37;;;;;;;0.83;0.83;;;;;;;;;;5119571;27;20277;-66
2022/03/03 13:41:27;;;;;;;0.90;0.90;;;;;;;;;;5122334;27;20688;-68
2022/03/03 13:44:17;;;;;;;1.20;1.10;;;;;;;;;;5123385;27;20228;-65
2022/03/03 13:47:06;;;;;;;1.17;1.17;;;;;;;;;;5125902;27;20341;-66
2022/03/03 13:49:56;;;;;;;1.10;1.10;;;;;;;;;;5124772;27;20211;-66
2022/03/03 13:52:43;;;;;;;1.30;1.30;;;;;;;;;;5123877;27;20305;-66
2022/03/03 13:55:31;;;;;;;1.07;1.07;;;;;;;;;;5122239;27;20283;-68
2022/03/03 13:58:24;;;;;;;1.33;1.33;;;;;;;;;;5121978;27;20232;-65
2022/03/03 14:01:11;;;;;;;1.00;1.00;;;;;;;;;;5123162;27;20215;-66
2022/03/03 14:04:09;;;;;;;1.40;1.40;;;;;;;;;;5119006;27;20619;-65
2022/03/03 14:06:56;;;;;;;1.30;1.30;;;;;;;;;;5119946;27;20231;-66
2022/03/03 14:09:55;;;;;;;1.23;1.23;;;;;;;;;;5121923;27;20272;-65
2022/03/03 14:13:02;;;;;;;1.20;1.20;;;;;;;;;;5121242;27;20292;-65
2022/03/03 14:15:49;;;;;;;0.97;0.97;;;;;;;;;;5121801;27;20241;-66
2022/03/03 14:18:37;;;;;;;1.00;1.00;;;;;;;;;;5120874;27;20760;-65
2022/03/03 14:21:24;;;;;;;0.90;0.90;;;;;;;;;;5124683;27;20299;-66
2022/03/03 14:24:11;;;;;;;1.27;1.17;;;;;;;;;;5119699;27;20206;-66
2022/03/03 14:26:58;;;;;;;1.10;1.10;;;;;;;;;;5120738;27;20333;-66
2022/03/03 14:29:49;;;;;;;1.00;1.00;;;;;;;;;;5124759;27;20217;-66
2022/03/03 14:32:36;;;;;;;0.90;0.90;;;;;;;;;;5123934;27;20263;-67
2022/03/03 14:35:24;;;;;;;0.83;0.83;;;;;;;;;;5120747;27;20292;-66
2022/03/03 14:38:11;;;;;;;0.90;0.90;;;;;;;;;;5117873;27;20715;-66
2022/03/03 14:41:00;;;;;;;0.83;0.83;;;;;;;;;;5119561;27;20281;-66
2022/03/03 14:43:46;;;;;;;0.87;0.87;;;;;;;;;;5118954;27;20222;-66
2022/03/03 14:46:35;;;;;;;1.00;0.90;;;;;;;;;;5117257;27;20220;-66
2022/03/03 14:49:22;;;;;;;0.70;0.70;;;;;;;;;;5119247;27;20250;-65
2022/03/03 14:52:09;;;;;;;0.80;0.80;;;;;;;;;;5125379;27;20732;-65
2022/03/03 14:54:56;;;;;;;0.80;0.80;;;;;;;;;;5119557;27;20930;-66
2022/03/03 14:57:43;;;;;;;0.77;0.77;;;;;;;;;;5116155;27;20666;-66
2022/03/03 15:00:31;;;;;;;0.80;0.80;;;;;;;;;;5121281;27;20202;-66
2022/03/03 15:03:20;;;;;;;0.50;0.50;;;;;;;;;;5121648;27;20205;-65
2022/03/03 15:06:07;;;;;;;0.60;0.60;;;;;;;;;;5119000;27;20289;-65
2022/03/03 15:08:54;;;;;;;0.70;0.70;;;;;;;;;;5123700;27;20297;-65
2022/03/03 15:11:41;;;;;;;0.50;0.50;;;;;;;;;;5122023;27;20658;-65
2022/03/03 15:14:28;;;;;;;0.63;0.43;;;;;;;;;;5121928;27;20343;-66
2022/03/03 15:17:16;;;;;;;0.50;0.50;;;;;;;;;;5122455;27;20197;-65
2022/03/03 15:20:05;;;;;;;0.30;0.30;;;;;;;;;;5123527;27;20209;-66
2022/03/03 15:22:52;;;;;;;0.47;0.47;;;;;;;;;;5122056;27;20551;-65
2022/03/03 15:25:40;;;;;;;0.50;0.50;;;;;;;;;;5125314;27;20237;-66
2022/03/03 15:28:26;;;;;;;0.50;0.50;;;;;;;;;;5122418;27;20355;-66
2022/03/03 15:31:13;;;;;;;0.73;0.73;;;;;;;;;;5122207;27;20236;-67
2022/03/03 15:37:06;;;;;;;0.40;0.40;;;;;;;;;;5120386;27;20205;-65
2022/03/03 15:39:53;;;;;;;0.50;0.50;;;;;;;;;;5123404;27;20260;-65
2022/03/03 15:42:40;;;;;;;0.40;0.40;;;;;;;;;;5120997;27;20713;-66
2022/03/03 15:45:27;;;;;;;0.50;0.50;;;;;;;;;;5118889;27;20212;-66
2022/03/03 15:48:14;;;;;;;0.40;0.40;;;;;;;;;;5123089;27;20217;-66
2022/03/03 15:51:02;;;;;;;0.70;0.70;;;;;;;;;;5119687;27;20209;-67
2022/03/03 15:53:50;;;;;;;1.10;1.10;;;;;;;;;;5120271;27;20717;-66
2022/03/03 15:56:38;;;;;;;0.70;0.70;;;;;;;;;;5120251;27;20218;-66
2022/03/03 15:59:25;;;;;;;0.90;0.90;;;;;;;;;;5119033;27;20209;-66
2022/03/03 16:02:13;;;;;;;0.77;0.77;;;;;;;;;;5120188;27;20208;-66
2022/03/03 16:05:00;;;;;;;0.43;0.43;;;;;;;;;;5119556;27;20285;-67
2022/03/03 16:07:47;;;;;;;0.67;0.67;;;;;;;;;;5121654;27;20255;-65
2022/03/03 16:10:35;;;;;;;0.80;0.80;;;;;;;;;;5115624;27;20210;-67
2022/03/03 16:13:22;;;;;;;1.00;0.73;;;;;;;;;;5122639;27;20315;-66
2022/03/03 16:16:09;;;;;;;0.57;0.57;;;;;;;;;;5118324;28;20210;-66
2022/03/03 16:18:56;;;;;;;0.77;0.77;;;;;;;;;;5119970;27;20212;-66
2022/03/03 16:21:43;;;;;;;0.47;0.47;;;;;;;;;;5119820;27;20657;-66
2022/03/03 16:24:30;;;;;;;0.60;0.60;;;;;;;;;;5119196;28;20212;-66
2022/03/03 16:27:19;;;;;;;0.80;0.80;;;;;;;;;;5121316;28;20305;-66
2022/03/03 16:30:07;;;;;;;0.93;0.90;;;;;;;;;;5121188;28;20240;-66
2022/03/03 16:32:54;;;;;;;0.57;0.57;;;;;;;;;;5122597;28;20224;-66
2022/03/03 16:35:41;;;;;;;0.63;0.63;;;;;;;;;;5118120;28;20280;-67
2022/03/03 16:38:28;;;;;;;0.63;0.63;;;;;;;;;;5116014;28;20203;-66
2022/03/03 16:41:14;;;;;;;0.67;0.67;;;;;;;;;;5119765;28;20219;-66
2022/03/03 16:44:04;;;;;;;0.77;0.53;;;;;;;;;;5119974;28;20222;-66
2022/03/03 16:46:52;;;;;;;1.23;0.57;;;;;;;;;;5120334;28;20212;-66
2022/03/03 16:49:39;;;;;;;0.77;0.77;;;;;;;;;;5117621;28;20212;-68
2022/03/03 16:52:26;;;;;;;0.40;0.40;;;;;;;;;;5124258;27;20773;-66